sensor_id;sensor_type;location;lat;lon;timestamp;temperature;humidity
66328;DHT22;53133;52.862;6.602;2022-12-17T00:02:38;1.10;99.90
66328;DHT22;53133;52.862;6.602;2022-12-17T00:05:22;1.00;99.90
66328;DHT22;53133;52.862;6.602;2022-12-17T00:08:08;1.00;99.90
66328;DHT22;53133;52.862;6.602;2022-12-17T00:10:52;1.00;99.90
66328;DHT22;53133;52.862;6.602;2022-12-17T00:13:36;0.90;99.90
66328;DHT22;53133;52.862;6.602;2022-12-17T00:16:20;1.00;99.90
66328;DHT22;53133;52.862;6.602;2022-12-17T00:19:05;1.00;99.90
66328;DHT22;53133;52.862;6.602;2022-12-17T00:21:49;1.00;99.90
66328;DHT22;53133;52.862;6.602;2022-12-17T00:24:33;1.00;99.90
66328;DHT22;53133;52.862;6.602;2022-12-17T00:27:18;0.90;99.90
66328;DHT22;53133;52.862;6.602;2022-12-17T00:30:02;1.00;99.90
66328;DHT22;53133;52.862;6.602;2022-12-17T00:32:46;1.00;99.90
66328;DHT22;53133;52.862;6.602;2022-12-17T00:35:31;1.00;99.90
66328;DHT22;53133;52.862;6.602;2022-12-17T00:38:16;1.00;99.90
66328;DHT22;53133;52.862;6.602;2022-12-17T00:41:00;1.00;99.90
66328;DHT22;53133;52.862;6.602;2022-12-17T00:43:45;1.00;99.90
66328;DHT22;53133;52.862;6.602;2022-12-17T00:46:29;1.00;99.90
66328;DHT22;53133;52.862;6.602;2022-12-17T00:49:14;1.00;99.90
66328;DHT22;53133;52.862;6.602;2022-12-17T00:51:58;1.00;99.90
66328;DHT22;53133;52.862;6.602;2022-12-17T00:54:42;1.10;99.90
66328;DHT22;53133;52.862;6.602;2022-12-17T00:57:26;1.00;99.90
66328;DHT22;53133;52.862;6.602;2022-12-17T01:00:11;1.00;99.90
66328;DHT22;53133;52.862;6.602;2022-12-17T01:03:04;1.00;99.90
66328;DHT22;53133;52.862;6.602;2022-12-17T01:05:48;1.00;99.90
66328;DHT22;53133;52.862;6.602;2022-12-17T01:08:32;1.00;99.90
66328;DHT22;53133;52.862;6.602;2022-12-17T01:11:17;1.00;99.90
66328;DHT22;53133;52.862;6.602;2022-12-17T01:14:01;1.00;99.90
66328;DHT22;53133;52.862;6.602;2022-12-17T01:16:45;1.00;99.90
66328;DHT22;53133;52.862;6.602;2022-12-17T01:19:30;1.00;99.90
66328;DHT22;53133;52.862;6.602;2022-12-17T01:22:14;1.00;99.90
66328;DHT22;53133;52.862;6.602;2022-12-17T01:24:58;1.00;99.90
66328;DHT22;53133;52.862;6.602;2022-12-17T01:27:47;1.00;99.90
66328;DHT22;53133;52.862;6.602;2022-12-17T01:30:31;1.00;99.90
66328;DHT22;53133;52.862;6.602;2022-12-17T01:33:15;1.00;99.90
66328;DHT22;53133;52.862;6.602;2022-12-17T01:36:00;1.00;99.90
66328;DHT22;53133;52.862;6.602;2022-12-17T01:38:44;1.00;99.90
66328;DHT22;53133;52.862;6.602;2022-12-17T01:41:29;1.00;99.90
66328;DHT22;53133;52.862;6.602;2022-12-17T01:47:23;1.00;99.90
66328;DHT22;53133;52.862;6.602;2022-12-17T01:50:08;0.90;99.90
66328;DHT22;53133;52.862;6.602;2022-12-17T01:52:54;0.90;99.90
66328;DHT22;53133;52.862;6.602;2022-12-17T01:55:40;0.90;99.90
66328;DHT22;53133;52.862;6.602;2022-12-17T01:58:24;0.90;99.90
66328;DHT22;53133;52.862;6.602;2022-12-17T02:01:09;0.90;99.90
66328;DHT22;53133;52.862;6.602;2022-12-17T02:03:53;0.90;99.90
66328;DHT22;53133;52.862;6.602;2022-12-17T02:06:47;0.90;99.90
66328;DHT22;53133;52.862;6.602;2022-12-17T02:09:43;0.90;99.90
66328;DHT22;53133;52.862;6.602;2022-12-17T02:12:35;0.90;99.90
66328;DHT22;53133;52.862;6.602;2022-12-17T02:15:50;0.90;99.90
66328;DHT22;53133;52.862;6.602;2022-12-17T02:18:39;0.90;99.90
66328;DHT22;53133;52.862;6.602;2022-12-17T02:21:30;0.90;99.90
66328;DHT22;53133;52.862;6.602;2022-12-17T02:27:09;0.90;99.90
66328;DHT22;53133;52.862;6.602;2022-12-17T02:29:56;0.90;99.90
66328;DHT22;53133;52.862;6.602;2022-12-17T02:32:43;0.90;99.90
66328;DHT22;53133;52.862;6.602;2022-12-17T02:35:41;0.90;99.90
66328;DHT22;53133;52.862;6.602;2022-12-17T02:38:29;0.90;99.90
66328;DHT22;53133;52.862;6.602;2022-12-17T02:41:20;0.90;99.90
66328;DHT22;53133;52.862;6.602;2022-12-17T02:44:07;0.90;99.90
66328;DHT22;53133;52.862;6.602;2022-12-17T02:46:52;0.90;99.90
66328;DHT22;53133;52.862;6.602;2022-12-17T02:49:37;0.90;99.90
66328;DHT22;53133;52.862;6.602;2022-12-17T02:52:22;0.90;99.90
66328;DHT22;53133;52.862;6.602;2022-12-17T02:55:07;0.80;99.90
66328;DHT22;53133;52.862;6.602;2022-12-17T02:57:52;0.90;99.90
66328;DHT22;53133;52.862;6.602;2022-12-17T03:00:36;0.90;99.90
66328;DHT22;53133;52.862;6.602;2022-12-17T03:03:20;0.90;99.90
66328;DHT22;53133;52.862;6.602;2022-12-17T03:06:05;0.90;99.90
66328;DHT22;53133;52.862;6.602;2022-12-17T03:08:49;0.80;99.90
66328;DHT22;53133;52.862;6.602;2022-12-17T03:11:33;0.80;99.90
66328;DHT22;53133;52.862;6.602;2022-12-17T03:14:18;0.90;99.90
66328;DHT22;53133;52.862;6.602;2022-12-17T03:17:02;0.90;99.90
66328;DHT22;53133;52.862;6.602;2022-12-17T03:19:46;0.90;99.90
66328;DHT22;53133;52.862;6.602;2022-12-17T03:22:35;0.90;99.90
66328;DHT22;53133;52.862;6.602;2022-12-17T03:25:19;1.00;99.90
66328;DHT22;53133;52.862;6.602;2022-12-17T03:28:06;0.90;99.90
66328;DHT22;53133;52.862;6.602;2022-12-17T03:30:51;0.90;99.90
66328;DHT22;53133;52.862;6.602;2022-12-17T03:33:35;0.90;99.90
66328;DHT22;53133;52.862;6.602;2022-12-17T03:36:19;0.90;99.90
66328;DHT22;53133;52.862;6.602;2022-12-17T03:39:04;0.90;99.90
66328;DHT22;53133;52.862;6.602;2022-12-17T03:41:48;0.90;99.90
66328;DHT22;53133;52.862;6.602;2022-12-17T03:44:32;0.80;99.90
66328;DHT22;53133;52.862;6.602;2022-12-17T03:47:17;0.80;99.90
66328;DHT22;53133;52.862;6.602;2022-12-17T03:50:01;0.80;99.90
66328;DHT22;53133;52.862;6.602;2022-12-17T03:52:45;0.80;99.90
66328;DHT22;53133;52.862;6.602;2022-12-17T03:55:29;0.80;99.90
66328;DHT22;53133;52.862;6.602;2022-12-17T03:58:14;0.80;99.90
66328;DHT22;53133;52.862;6.602;2022-12-17T04:00:58;0.80;99.90
66328;DHT22;53133;52.862;6.602;2022-12-17T04:03:43;0.80;99.90
66328;DHT22;53133;52.862;6.602;2022-12-17T04:06:28;0.80;99.90
66328;DHT22;53133;52.862;6.602;2022-12-17T04:09:12;0.80;99.90
66328;DHT22;53133;52.862;6.602;2022-12-17T04:11:56;0.80;99.90
66328;DHT22;53133;52.862;6.602;2022-12-17T04:14:40;0.80;99.90
66328;DHT22;53133;52.862;6.602;2022-12-17T04:17:25;0.80;99.90
66328;DHT22;53133;52.862;6.602;2022-12-17T04:20:09;0.80;99.90
66328;DHT22;53133;52.862;6.602;2022-12-17T04:22:54;0.80;99.90
66328;DHT22;53133;52.862;6.602;2022-12-17T04:25:38;0.80;99.90
66328;DHT22;53133;52.862;6.602;2022-12-17T04:28:22;0.80;99.90
66328;DHT22;53133;52.862;6.602;2022-12-17T04:31:07;0.80;99.90
66328;DHT22;53133;52.862;6.602;2022-12-17T04:33:51;0.80;99.90
66328;DHT22;53133;52.862;6.602;2022-12-17T04:36:35;0.80;99.90
66328;DHT22;53133;52.862;6.602;2022-12-17T04:39:20;0.80;99.90
66328;DHT22;53133;52.862;6.602;2022-12-17T04:42:04;0.90;99.90
66328;DHT22;53133;52.862;6.602;2022-12-17T04:44:48;0.90;99.90
66328;DHT22;53133;52.862;6.602;2022-12-17T04:47:32;0.80;99.90
66328;DHT22;53133;52.862;6.602;2022-12-17T04:50:17;0.90;99.90
66328;DHT22;53133;52.862;6.602;2022-12-17T04:53:02;0.80;99.90
66328;DHT22;53133;52.862;6.602;2022-12-17T04:55:47;0.90;99.90
66328;DHT22;53133;52.862;6.602;2022-12-17T04:58:39;0.90;99.90
66328;DHT22;53133;52.862;6.602;2022-12-17T05:01:24;0.90;99.90
66328;DHT22;53133;52.862;6.602;2022-12-17T05:04:08;0.90;99.90
66328;DHT22;53133;52.862;6.602;2022-12-17T05:06:52;0.90;99.90
66328;DHT22;53133;52.862;6.602;2022-12-17T05:09:37;0.90;99.90
66328;DHT22;53133;52.862;6.602;2022-12-17T05:12:21;0.90;99.90
66328;DHT22;53133;52.862;6.602;2022-12-17T05:15:06;0.90;99.90
66328;DHT22;53133;52.862;6.602;2022-12-17T05:17:50;0.90;99.90
66328;DHT22;53133;52.862;6.602;2022-12-17T05:20:34;0.90;99.90
66328;DHT22;53133;52.862;6.602;2022-12-17T05:23:22;0.90;99.90
66328;DHT22;53133;52.862;6.602;2022-12-17T05:26:32;0.90;99.90
66328;DHT22;53133;52.862;6.602;2022-12-17T05:29:16;0.90;99.90
66328;DHT22;53133;52.862;6.602;2022-12-17T05:32:01;0.80;99.90
66328;DHT22;53133;52.862;6.602;2022-12-17T05:34:45;0.80;99.90
66328;DHT22;53133;52.862;6.602;2022-12-17T05:37:31;0.90;99.90
66328;DHT22;53133;52.862;6.602;2022-12-17T05:40:16;0.80;99.90
66328;DHT22;53133;52.862;6.602;2022-12-17T05:43:03;0.80;99.90
66328;DHT22;53133;52.862;6.602;2022-12-17T05:45:48;0.80;99.90
66328;DHT22;53133;52.862;6.602;2022-12-17T05:48:33;0.80;99.90
66328;DHT22;53133;52.862;6.602;2022-12-17T05:51:17;0.80;99.90
66328;DHT22;53133;52.862;6.602;2022-12-17T05:54:02;0.80;99.90
66328;DHT22;53133;52.862;6.602;2022-12-17T05:56:47;0.80;99.90
66328;DHT22;53133;52.862;6.602;2022-12-17T05:59:31;0.80;99.90
66328;DHT22;53133;52.862;6.602;2022-12-17T06:02:15;0.80;99.90
66328;DHT22;53133;52.862;6.602;2022-12-17T06:05:00;0.80;99.90
66328;DHT22;53133;52.862;6.602;2022-12-17T06:07:44;0.80;99.90
66328;DHT22;53133;52.862;6.602;2022-12-17T06:10:29;0.80;99.90
66328;DHT22;53133;52.862;6.602;2022-12-17T06:13:13;0.80;99.90
66328;DHT22;53133;52.862;6.602;2022-12-17T06:15:57;0.80;99.90
66328;DHT22;53133;52.862;6.602;2022-12-17T06:18:41;0.80;99.90
66328;DHT22;53133;52.862;6.602;2022-12-17T06:21:26;0.70;99.90
66328;DHT22;53133;52.862;6.602;2022-12-17T06:24:10;0.80;99.90
66328;DHT22;53133;52.862;6.602;2022-12-17T06:26:55;0.80;99.90
66328;DHT22;53133;52.862;6.602;2022-12-17T06:29:39;0.70;99.90
66328;DHT22;53133;52.862;6.602;2022-12-17T06:32:23;0.70;99.90
66328;DHT22;53133;52.862;6.602;2022-12-17T06:35:08;0.70;99.90
66328;DHT22;53133;52.862;6.602;2022-12-17T06:38:04;0.70;99.90
66328;DHT22;53133;52.862;6.602;2022-12-17T06:40:52;0.70;99.90
66328;DHT22;53133;52.862;6.602;2022-12-17T06:43:39;0.60;99.90
66328;DHT22;53133;52.862;6.602;2022-12-17T06:46:23;0.60;99.90
66328;DHT22;53133;52.862;6.602;2022-12-17T06:49:08;0.60;99.90
66328;DHT22;53133;52.862;6.602;2022-12-17T06:51:52;0.60;99.90
66328;DHT22;53133;52.862;6.602;2022-12-17T06:54:36;0.60;99.90
66328;DHT22;53133;52.862;6.602;2022-12-17T06:57:21;0.60;99.90
66328;DHT22;53133;52.862;6.602;2022-12-17T07:00:05;0.60;99.90
66328;DHT22;53133;52.862;6.602;2022-12-17T07:02:57;0.60;99.90
66328;DHT22;53133;52.862;6.602;2022-12-17T07:05:42;0.60;99.90
66328;DHT22;53133;52.862;6.602;2022-12-17T07:08:26;0.60;99.90
66328;DHT22;53133;52.862;6.602;2022-12-17T07:11:10;0.60;99.90
66328;DHT22;53133;52.862;6.602;2022-12-17T07:13:55;0.60;99.90
66328;DHT22;53133;52.862;6.602;2022-12-17T07:16:39;0.60;99.90
66328;DHT22;53133;52.862;6.602;2022-12-17T07:19:23;0.60;99.90
66328;DHT22;53133;52.862;6.602;2022-12-17T07:22:08;0.60;99.90
66328;DHT22;53133;52.862;6.602;2022-12-17T07:24:52;0.60;99.90
66328;DHT22;53133;52.862;6.602;2022-12-17T07:27:36;0.50;99.90
66328;DHT22;53133;52.862;6.602;2022-12-17T07:30:20;0.50;99.90
66328;DHT22;53133;52.862;6.602;2022-12-17T07:33:06;0.50;99.90
66328;DHT22;53133;52.862;6.602;2022-12-17T07:35:52;0.50;99.90
66328;DHT22;53133;52.862;6.602;2022-12-17T07:38:37;0.50;99.90
66328;DHT22;53133;52.862;6.602;2022-12-17T07:41:21;0.50;99.90
66328;DHT22;53133;52.862;6.602;2022-12-17T07:44:05;0.50;99.90
66328;DHT22;53133;52.862;6.602;2022-12-17T07:46:50;0.50;99.90
66328;DHT22;53133;52.862;6.602;2022-12-17T07:49:34;0.50;99.90
66328;DHT22;53133;52.862;6.602;2022-12-17T07:52:18;0.60;99.90
66328;DHT22;53133;52.862;6.602;2022-12-17T07:55:03;0.60;99.90
66328;DHT22;53133;52.862;6.602;2022-12-17T07:57:59;0.60;99.90
66328;DHT22;53133;52.862;6.602;2022-12-17T08:00:44;0.60;99.90
66328;DHT22;53133;52.862;6.602;2022-12-17T08:03:28;0.60;99.90
66328;DHT22;53133;52.862;6.602;2022-12-17T08:06:13;0.60;99.90
66328;DHT22;53133;52.862;6.602;2022-12-17T08:08:57;0.60;99.90
66328;DHT22;53133;52.862;6.602;2022-12-17T08:11:41;0.60;99.90
66328;DHT22;53133;52.862;6.602;2022-12-17T08:14:26;0.60;99.90
66328;DHT22;53133;52.862;6.602;2022-12-17T08:17:10;0.60;99.90
66328;DHT22;53133;52.862;6.602;2022-12-17T08:19:54;0.60;99.90
66328;DHT22;53133;52.862;6.602;2022-12-17T08:22:38;0.60;99.90
66328;DHT22;53133;52.862;6.602;2022-12-17T08:25:23;0.60;99.90
66328;DHT22;53133;52.862;6.602;2022-12-17T08:28:07;0.60;99.90
66328;DHT22;53133;52.862;6.602;2022-12-17T08:30:51;0.60;99.90
66328;DHT22;53133;52.862;6.602;2022-12-17T08:33:36;0.60;99.90
66328;DHT22;53133;52.862;6.602;2022-12-17T08:36:20;0.60;99.90
66328;DHT22;53133;52.862;6.602;2022-12-17T08:39:04;0.60;99.90
66328;DHT22;53133;52.862;6.602;2022-12-17T08:41:49;0.60;99.90
66328;DHT22;53133;52.862;6.602;2022-12-17T08:44:33;0.60;99.90
66328;DHT22;53133;52.862;6.602;2022-12-17T08:47:17;0.70;99.90
66328;DHT22;53133;52.862;6.602;2022-12-17T08:50:03;0.70;99.90
66328;DHT22;53133;52.862;6.602;2022-12-17T08:52:47;0.70;99.90
66328;DHT22;53133;52.862;6.602;2022-12-17T08:55:31;0.70;99.90
66328;DHT22;53133;52.862;6.602;2022-12-17T08:58:15;0.70;99.90
66328;DHT22;53133;52.862;6.602;2022-12-17T09:01:00;0.70;99.90
66328;DHT22;53133;52.862;6.602;2022-12-17T09:03:45;0.70;99.90
66328;DHT22;53133;52.862;6.602;2022-12-17T09:06:30;0.80;99.90
66328;DHT22;53133;52.862;6.602;2022-12-17T09:09:14;0.80;99.90
66328;DHT22;53133;52.862;6.602;2022-12-17T09:11:58;0.80;99.90
66328;DHT22;53133;52.862;6.602;2022-12-17T09:14:45;0.70;99.90
66328;DHT22;53133;52.862;6.602;2022-12-17T09:17:29;0.70;99.90
66328;DHT22;53133;52.862;6.602;2022-12-17T09:20:14;0.70;99.90
66328;DHT22;53133;52.862;6.602;2022-12-17T09:22:58;0.70;99.90
66328;DHT22;53133;52.862;6.602;2022-12-17T09:25:42;0.70;99.90
66328;DHT22;53133;52.862;6.602;2022-12-17T09:28:26;0.70;99.90
66328;DHT22;53133;52.862;6.602;2022-12-17T09:31:11;0.70;99.90
66328;DHT22;53133;52.862;6.602;2022-12-17T09:33:55;0.70;99.90
66328;DHT22;53133;52.862;6.602;2022-12-17T09:36:39;0.60;99.90
66328;DHT22;53133;52.862;6.602;2022-12-17T09:39:24;0.70;99.90
66328;DHT22;53133;52.862;6.602;2022-12-17T09:42:33;0.70;99.90
66328;DHT22;53133;52.862;6.602;2022-12-17T09:45:26;0.80;99.90
66328;DHT22;53133;52.862;6.602;2022-12-17T09:48:26;0.70;99.90
66328;DHT22;53133;52.862;6.602;2022-12-17T09:51:25;0.70;99.90
66328;DHT22;53133;52.862;6.602;2022-12-17T09:56:59;0.70;99.90
66328;DHT22;53133;52.862;6.602;2022-12-17T09:59:43;0.70;99.90
66328;DHT22;53133;52.862;6.602;2022-12-17T10:02:29;0.70;99.90
66328;DHT22;53133;52.862;6.602;2022-12-17T10:05:30;0.70;99.90
66328;DHT22;53133;52.862;6.602;2022-12-17T10:08:18;0.70;99.90
66328;DHT22;53133;52.862;6.602;2022-12-17T10:11:19;0.70;99.90
66328;DHT22;53133;52.862;6.602;2022-12-17T10:14:15;0.80;99.90
66328;DHT22;53133;52.862;6.602;2022-12-17T10:17:42;0.80;99.90
66328;DHT22;53133;52.862;6.602;2022-12-17T10:20:46;0.80;99.90
66328;DHT22;53133;52.862;6.602;2022-12-17T10:23:33;0.80;99.90
66328;DHT22;53133;52.862;6.602;2022-12-17T10:26:22;0.80;99.90
66328;DHT22;53133;52.862;6.602;2022-12-17T10:29:11;0.90;99.90
66328;DHT22;53133;52.862;6.602;2022-12-17T10:32:11;0.90;99.90
66328;DHT22;53133;52.862;6.602;2022-12-17T10:35:33;1.00;99.90
66328;DHT22;53133;52.862;6.602;2022-12-17T10:38:24;1.00;99.90
66328;DHT22;53133;52.862;6.602;2022-12-17T10:41:33;1.10;99.90
66328;DHT22;53133;52.862;6.602;2022-12-17T10:47:12;1.20;99.90
66328;DHT22;53133;52.862;6.602;2022-12-17T10:50:01;1.30;99.90
66328;DHT22;53133;52.862;6.602;2022-12-17T10:52:46;1.20;99.90
66328;DHT22;53133;52.862;6.602;2022-12-17T10:55:33;1.30;99.90
66328;DHT22;53133;52.862;6.602;2022-12-17T10:58:20;1.30;99.90
66328;DHT22;53133;52.862;6.602;2022-12-17T11:01:08;1.30;99.90
66328;DHT22;53133;52.862;6.602;2022-12-17T11:03:57;1.30;99.90
66328;DHT22;53133;52.862;6.602;2022-12-17T11:09:42;1.30;99.90
66328;DHT22;53133;52.862;6.602;2022-12-17T11:12:38;1.30;99.90
66328;DHT22;53133;52.862;6.602;2022-12-17T11:15:46;1.30;99.90
66328;DHT22;53133;52.862;6.602;2022-12-17T11:28:26;1.10;99.90
66328;DHT22;53133;52.862;6.602;2022-12-17T11:34:23;1.10;99.90
66328;DHT22;53133;52.862;6.602;2022-12-17T11:40:20;1.20;99.90
66328;DHT22;53133;52.862;6.602;2022-12-17T11:43:13;1.20;99.90
66328;DHT22;53133;52.862;6.602;2022-12-17T11:49:10;1.30;99.90
66328;DHT22;53133;52.862;6.602;2022-12-17T11:52:38;1.30;99.90
66328;DHT22;53133;52.862;6.602;2022-12-17T11:55:45;1.40;99.90
66328;DHT22;53133;52.862;6.602;2022-12-17T11:58:40;1.30;99.90
66328;DHT22;53133;52.862;6.602;2022-12-17T12:01:34;1.40;99.90
66328;DHT22;53133;52.862;6.602;2022-12-17T12:10:24;1.40;99.90
66328;DHT22;53133;52.862;6.602;2022-12-17T12:13:18;1.50;99.90
66328;DHT22;53133;52.862;6.602;2022-12-17T12:18:59;1.50;99.90
66328;DHT22;53133;52.862;6.602;2022-12-17T12:28:40;1.50;99.90
66328;DHT22;53133;52.862;6.602;2022-12-17T12:31:30;1.50;99.90
66328;DHT22;53133;52.862;6.602;2022-12-17T12:34:24;1.50;99.90
66328;DHT22;53133;52.862;6.602;2022-12-17T12:37:12;1.50;99.90
66328;DHT22;53133;52.862;6.602;2022-12-17T12:40:18;1.50;99.90
66328;DHT22;53133;52.862;6.602;2022-12-17T12:43:27;1.50;99.90
66328;DHT22;53133;52.862;6.602;2022-12-17T12:52:11;1.70;99.90
66328;DHT22;53133;52.862;6.602;2022-12-17T12:54:57;1.70;99.90
66328;DHT22;53133;52.862;6.602;2022-12-17T12:58:00;1.60;99.90
66328;DHT22;53133;52.862;6.602;2022-12-17T13:03:33;1.60;99.90
66328;DHT22;53133;52.862;6.602;2022-12-17T13:06:41;1.60;99.90
66328;DHT22;53133;52.862;6.602;2022-12-17T13:11:53;1.60;99.90
66328;DHT22;53133;52.862;6.602;2022-12-17T13:17:00;1.50;99.90
66328;DHT22;53133;52.862;6.602;2022-12-17T13:24:46;1.50;99.90
66328;DHT22;53133;52.862;6.602;2022-12-17T13:41:07;1.40;99.90
66328;DHT22;53133;52.862;6.602;2022-12-17T13:43:39;1.40;99.90
66328;DHT22;53133;52.862;6.602;2022-12-17T13:46:14;1.40;99.90
66328;DHT22;53133;52.862;6.602;2022-12-17T13:48:40;1.30;99.90
66328;DHT22;53133;52.862;6.602;2022-12-17T13:51:16;1.30;99.90
66328;DHT22;53133;52.862;6.602;2022-12-17T13:53:51;1.40;99.90
66328;DHT22;53133;52.862;6.602;2022-12-17T13:56:22;1.40;99.90
66328;DHT22;53133;52.862;6.602;2022-12-17T13:58:51;1.40;99.90
66328;DHT22;53133;52.862;6.602;2022-12-17T14:01:17;1.40;99.90
66328;DHT22;53133;52.862;6.602;2022-12-17T14:03:49;1.40;99.90
66328;DHT22;53133;52.862;6.602;2022-12-17T14:06:15;1.30;99.90
66328;DHT22;53133;52.862;6.602;2022-12-17T14:08:41;1.30;99.90
66328;DHT22;53133;52.862;6.602;2022-12-17T14:11:07;1.30;99.90
66328;DHT22;53133;52.862;6.602;2022-12-17T14:13:57;1.20;99.90
66328;DHT22;53133;52.862;6.602;2022-12-17T14:16:23;1.30;99.90
66328;DHT22;53133;52.862;6.602;2022-12-17T14:18:52;1.30;99.90
66328;DHT22;53133;52.862;6.602;2022-12-17T14:21:21;1.30;99.90
66328;DHT22;53133;52.862;6.602;2022-12-17T14:23:49;1.30;99.90
66328;DHT22;53133;52.862;6.602;2022-12-17T14:26:15;1.30;99.90
66328;DHT22;53133;52.862;6.602;2022-12-17T14:28:47;1.30;99.90
66328;DHT22;53133;52.862;6.602;2022-12-17T14:33:39;1.20;99.90
66328;DHT22;53133;52.862;6.602;2022-12-17T14:36:06;1.20;99.90
66328;DHT22;53133;52.862;6.602;2022-12-17T14:38:32;1.10;99.90
66328;DHT22;53133;52.862;6.602;2022-12-17T14:41:10;1.20;99.90
66328;DHT22;53133;52.862;6.602;2022-12-17T14:43:59;1.20;99.90
66328;DHT22;53133;52.862;6.602;2022-12-17T14:46:26;1.10;99.90
66328;DHT22;53133;52.862;6.602;2022-12-17T14:49:00;1.10;99.90
66328;DHT22;53133;52.862;6.602;2022-12-17T14:54:15;1.00;99.90
66328;DHT22;53133;52.862;6.602;2022-12-17T14:56:43;1.00;99.90
66328;DHT22;53133;52.862;6.602;2022-12-17T15:02:00;0.90;99.90
66328;DHT22;53133;52.862;6.602;2022-12-17T15:04:31;0.90;99.90
66328;DHT22;53133;52.862;6.602;2022-12-17T15:06:57;0.90;99.90
66328;DHT22;53133;52.862;6.602;2022-12-17T15:09:23;0.90;99.90
66328;DHT22;53133;52.862;6.602;2022-12-17T15:11:49;0.90;99.90
66328;DHT22;53133;52.862;6.602;2022-12-17T15:14:15;0.80;99.90
66328;DHT22;53133;52.862;6.602;2022-12-17T15:16:41;0.90;99.90
66328;DHT22;53133;52.862;6.602;2022-12-17T15:19:06;0.90;99.90
66328;DHT22;53133;52.862;6.602;2022-12-17T15:21:32;0.90;99.90
66328;DHT22;53133;52.862;6.602;2022-12-17T15:23:58;0.90;99.90
66328;DHT22;53133;52.862;6.602;2022-12-17T15:26:23;0.90;99.90
66328;DHT22;53133;52.862;6.602;2022-12-17T15:28:49;0.80;99.90
66328;DHT22;53133;52.862;6.602;2022-12-17T15:31:15;0.80;99.90
66328;DHT22;53133;52.862;6.602;2022-12-17T15:33:41;0.80;99.90
66328;DHT22;53133;52.862;6.602;2022-12-17T15:36:06;0.80;99.90
66328;DHT22;53133;52.862;6.602;2022-12-17T15:38:33;0.80;99.90
66328;DHT22;53133;52.862;6.602;2022-12-17T15:41:00;0.80;99.90
66328;DHT22;53133;52.862;6.602;2022-12-17T15:43:46;0.70;99.90
66328;DHT22;53133;52.862;6.602;2022-12-17T15:46:11;0.70;99.90
66328;DHT22;53133;52.862;6.602;2022-12-17T15:48:37;0.70;99.90
66328;DHT22;53133;52.862;6.602;2022-12-17T15:51:03;0.70;99.90
66328;DHT22;53133;52.862;6.602;2022-12-17T15:53:28;0.70;99.90
66328;DHT22;53133;52.862;6.602;2022-12-17T15:56:00;0.70;99.90
66328;DHT22;53133;52.862;6.602;2022-12-17T15:58:26;0.70;99.90
66328;DHT22;53133;52.862;6.602;2022-12-17T16:00:52;0.70;99.90
66328;DHT22;53133;52.862;6.602;2022-12-17T16:03:18;0.70;99.90
66328;DHT22;53133;52.862;6.602;2022-12-17T16:05:43;0.60;99.90
66328;DHT22;53133;52.862;6.602;2022-12-17T16:08:09;0.60;99.90
66328;DHT22;53133;52.862;6.602;2022-12-17T16:10:35;0.60;99.90
66328;DHT22;53133;52.862;6.602;2022-12-17T16:13:01;0.60;99.90
66328;DHT22;53133;52.862;6.602;2022-12-17T16:15:27;0.60;99.90
66328;DHT22;53133;52.862;6.602;2022-12-17T16:17:52;0.60;99.90
66328;DHT22;53133;52.862;6.602;2022-12-17T16:20:18;0.60;99.90
66328;DHT22;53133;52.862;6.602;2022-12-17T16:22:43;0.60;99.90
66328;DHT22;53133;52.862;6.602;2022-12-17T16:25:09;0.60;99.90
66328;DHT22;53133;52.862;6.602;2022-12-17T16:27:35;0.60;99.90
66328;DHT22;53133;52.862;6.602;2022-12-17T16:30:01;0.60;99.90
66328;DHT22;53133;52.862;6.602;2022-12-17T16:32:28;0.60;99.90
66328;DHT22;53133;52.862;6.602;2022-12-17T16:34:56;0.60;99.90
66328;DHT22;53133;52.862;6.602;2022-12-17T16:37:22;0.60;99.90
66328;DHT22;53133;52.862;6.602;2022-12-17T16:39:50;0.60;99.90
66328;DHT22;53133;52.862;6.602;2022-12-17T16:42:16;0.60;99.90
66328;DHT22;53133;52.862;6.602;2022-12-17T16:44:41;0.50;99.90
66328;DHT22;53133;52.862;6.602;2022-12-17T16:47:08;0.60;99.90
66328;DHT22;53133;52.862;6.602;2022-12-17T16:49:34;0.60;99.90
66328;DHT22;53133;52.862;6.602;2022-12-17T16:51:59;0.50;99.90
66328;DHT22;53133;52.862;6.602;2022-12-17T16:54:29;0.50;99.90
66328;DHT22;53133;52.862;6.602;2022-12-17T16:56:55;0.60;99.90
66328;DHT22;53133;52.862;6.602;2022-12-17T16:59:21;0.50;99.90
66328;DHT22;53133;52.862;6.602;2022-12-17T17:01:48;0.50;99.90
66328;DHT22;53133;52.862;6.602;2022-12-17T17:04:16;0.50;99.90
66328;DHT22;53133;52.862;6.602;2022-12-17T17:06:45;0.40;99.90
66328;DHT22;53133;52.862;6.602;2022-12-17T17:09:12;0.50;99.90
66328;DHT22;53133;52.862;6.602;2022-12-17T17:11:38;0.40;99.90
66328;DHT22;53133;52.862;6.602;2022-12-17T17:14:04;0.40;99.90
66328;DHT22;53133;52.862;6.602;2022-12-17T17:16:30;0.40;99.90
66328;DHT22;53133;52.862;6.602;2022-12-17T17:18:56;0.40;99.90
66328;DHT22;53133;52.862;6.602;2022-12-17T17:21:27;0.30;99.90
66328;DHT22;53133;52.862;6.602;2022-12-17T17:24:11;0.40;99.90
66328;DHT22;53133;52.862;6.602;2022-12-17T17:26:37;0.30;99.90
66328;DHT22;53133;52.862;6.602;2022-12-17T17:29:04;0.30;99.90
66328;DHT22;53133;52.862;6.602;2022-12-17T17:31:30;0.30;99.90
66328;DHT22;53133;52.862;6.602;2022-12-17T17:33:56;0.30;99.90
66328;DHT22;53133;52.862;6.602;2022-12-17T17:36:24;0.30;99.90
66328;DHT22;53133;52.862;6.602;2022-12-17T17:38:51;0.20;99.90
66328;DHT22;53133;52.862;6.602;2022-12-17T17:41:19;0.20;99.90
66328;DHT22;53133;52.862;6.602;2022-12-17T17:43:45;0.20;99.90
66328;DHT22;53133;52.862;6.602;2022-12-17T17:46:15;0.20;99.90
66328;DHT22;53133;52.862;6.602;2022-12-17T17:48:42;0.20;99.90
66328;DHT22;53133;52.862;6.602;2022-12-17T17:51:13;0.20;99.90
66328;DHT22;53133;52.862;6.602;2022-12-17T17:53:42;0.20;99.90
66328;DHT22;53133;52.862;6.602;2022-12-17T17:56:11;0.20;99.90
66328;DHT22;53133;52.862;6.602;2022-12-17T17:58:53;0.20;99.90
66328;DHT22;53133;52.862;6.602;2022-12-17T18:01:24;0.20;99.90
66328;DHT22;53133;52.862;6.602;2022-12-17T18:03:51;0.30;99.90
66328;DHT22;53133;52.862;6.602;2022-12-17T18:06:17;0.30;99.90
66328;DHT22;53133;52.862;6.602;2022-12-17T18:08:43;0.30;99.90
66328;DHT22;53133;52.862;6.602;2022-12-17T18:11:11;0.20;99.90
66328;DHT22;53133;52.862;6.602;2022-12-17T18:13:43;0.20;99.90
66328;DHT22;53133;52.862;6.602;2022-12-17T18:16:35;0.10;99.90
66328;DHT22;53133;52.862;6.602;2022-12-17T18:19:16;0.10;99.90
66328;DHT22;53133;52.862;6.602;2022-12-17T18:21:42;0.10;99.90
66328;DHT22;53133;52.862;6.602;2022-12-17T18:24:22;0.10;99.90
66328;DHT22;53133;52.862;6.602;2022-12-17T18:26:49;0.10;99.90
66328;DHT22;53133;52.862;6.602;2022-12-17T18:29:18;0.10;99.90
66328;DHT22;53133;52.862;6.602;2022-12-17T18:31:44;0.10;99.90
66328;DHT22;53133;52.862;6.602;2022-12-17T18:34:12;0.10;99.90
66328;DHT22;53133;52.862;6.602;2022-12-17T18:36:41;0.00;99.90
66328;DHT22;53133;52.862;6.602;2022-12-17T18:39:11;0.10;99.90
66328;DHT22;53133;52.862;6.602;2022-12-17T18:41:38;0.10;99.90
66328;DHT22;53133;52.862;6.602;2022-12-17T18:44:23;0.10;99.90
66328;DHT22;53133;52.862;6.602;2022-12-17T18:46:49;0.10;99.90